KBHM/BHM METAR and TAF weather

Enter ICAO airport designator
Station Type Date Time Source
KBHM METAR 2020/01/22 14:53 UTC NOAA

KBHM 221453Z 07005KT 10SM BKN250 00/M09 A3041 RMK AO2 SLP301 T00001094 53011


Station Type Date Time Source
KBHM Decoded METAR 2020/01/22 14:53 UTC NOAA

BIRMINGHAM INT'L AIRPORT, AL, United States (KBHM) 33-34N 086-45W 197M
Jan 22, 2020 - 09:53 AM EST / 2020.01.22 1453 UTC
Wind: from the ENE (070 degrees) at 6 MPH (5 KT):0
Visibility: 10 mile(s):0
Sky conditions: mostly cloudy
Temperature: 32.0 F (0.0 C)
Windchill: 26 F (-3 C):1
Dew Point: 15.1 F (-9.4 C)
Relative Humidity: 49%
Pressure (altimeter): 30.41 in. Hg (1029 hPa)
Pressure tendency: 0.03 inches (1.1 hPa) higher than three hours ago
ob: KBHM 221453Z 07005KT 10SM BKN250 00/M09 A3041 RMK AO2 SLP301 T00001094 53011
cycle: 15

Station Type Date Time Source
KBHM TAF 2020/01/22 12:22 UTC NOAA

TAF KBHM 221120Z 2212/2312 00000KT P6SM SCT250
FM221500 11006KT P6SM BKN250
FM230800 12006KT P6SM OVC100

Example: see airport list